Time;durP1;ratioP1;P1;durP2;ratioP2;P2;SDS_P1;SDS_P2;PMS_P1;PMS_P2;Temp;Humidity;BMP_temperature;BMP_pressure;BME280_temperature;BME280_humidity;BME280_pressure;Samples;Min_cycle;Max_cycle;Signal;HPM_P1;HPM_P2
2023/06/08 00:02:36;;;;;;;6.07;2.73;;;;;;;18.19;100.00;99935.94;6246295;28;20559;-72
2023/06/08 00:05:43;;;;;;;4.30;2.55;;;;;;;18.15;100.00;99934.56;6246177;28;20049;-72
2023/06/08 00:08:44;;;;;;;3.55;3.00;;;;;;;18.17;100.00;99938.72;6245904;28;20179;-72
2023/06/08 00:11:48;;;;;;;5.50;3.27;;;;;;;18.17;100.00;99933.44;6255429;28;20429;-72
2023/06/08 00:14:50;;;;;;;4.22;2.70;;;;;;;18.13;100.00;99934.72;6230395;28;20050;-72
2023/06/08 00:17:51;;;;;;;3.15;2.63;;;;;;;18.06;100.00;99931.00;6252730;28;20056;-72
2023/06/08 00:20:52;;;;;;;8.57;2.70;;;;;;;18.02;100.00;99930.44;6269042;28;20083;-72
2023/06/08 00:23:52;;;;;;;4.67;3.33;;;;;;;18.01;100.00;99930.59;6270584;28;20053;-72
2023/06/08 00:26:55;;;;;;;4.10;3.00;;;;;;;18.01;100.00;99930.59;6260275;28;20057;-72
2023/06/08 00:29:57;;;;;;;5.20;3.15;;;;;;;17.98;100.00;99939.63;6248021;28;20046;-72
2023/06/08 00:32:57;;;;;;;3.40;2.70;;;;;;;18.02;100.00;99935.72;6247166;28;20045;-72
2023/06/08 00:35:58;;;;;;;3.00;2.60;;;;;;;17.98;100.00;99923.78;6255066;28;20282;-72
2023/06/08 00:38:59;;;;;;;8.45;3.17;;;;;;;18.02;100.00;99925.16;6267454;28;20041;-72
2023/06/08 00:42:00;;;;;;;3.33;2.70;;;;;;;17.99;100.00;99920.16;6268398;28;20045;-72
2023/06/08 00:45:00;;;;;;;7.57;2.75;;;;;;;18.00;100.00;99928.94;6268854;28;20420;-72
2023/06/08 00:48:04;;;;;;;5.43;2.97;;;;;;;17.98;100.00;99920.34;6269035;28;20049;-72
2023/06/08 00:51:05;;;;;;;10.07;2.97;;;;;;;18.02;100.00;99919.88;6269666;28;20073;-72
2023/06/08 00:54:06;;;;;;;6.23;3.10;;;;;;;18.02;100.00;99919.06;6255223;28;20416;-72
2023/06/08 00:57:09;;;;;;;3.42;2.78;;;;;;;17.98;100.00;99907.97;6261763;28;20049;-72
2023/06/08 01:00:11;;;;;;;4.75;2.88;;;;;;;17.99;100.00;99916.69;6250267;28;20059;-72
2023/06/08 01:03:14;;;;;;;7.03;3.42;;;;;;;17.87;100.00;99910.75;6249070;28;20369;-72
2023/06/08 01:06:16;;;;;;;7.35;3.25;;;;;;;17.90;100.00;99913.13;6252570;28;20053;-72
2023/06/08 01:09:43;;;;;;;4.55;3.22;;;;;;;17.91;100.00;99917.41;6262029;28;20056;-72
2023/06/08 01:13:07;;;;;;;5.03;3.33;;;;;;;17.91;100.00;99909.50;6274365;28;20487;-72
2023/06/08 01:16:13;;;;;;;4.35;3.35;;;;;;;17.91;100.00;99907.72;6271337;28;20488;-72
2023/06/08 01:19:18;;;;;;;6.90;3.63;;;;;;;17.91;100.00;99913.00;6255466;28;20137;-71
2023/06/08 01:22:41;;;;;;;5.15;3.22;;;;;;;17.90;100.00;99915.75;6249780;28;20049;-72
2023/06/08 01:25:42;;;;;;;5.57;3.45;;;;;;;17.89;100.00;99911.44;6250839;28;20052;-72
2023/06/08 01:28:48;;;;;;;5.33;2.80;;;;;;;17.72;100.00;99913.00;6264277;28;20488;-71
2023/06/08 01:31:48;;;;;;;5.25;3.40;;;;;;;17.72;100.00;99923.56;6274215;28;20053;-71
2023/06/08 01:34:49;;;;;;;5.70;3.10;;;;;;;17.77;100.00;99931.03;6271990;28;20104;-72
2023/06/08 01:37:56;;;;;;;3.47;2.92;;;;;;;17.59;100.00;99923.03;6262011;28;20072;-72
2023/06/08 01:41:02;;;;;;;3.90;2.72;;;;;;;17.58;100.00;99922.19;6250365;28;20103;-71
2023/06/08 01:44:06;;;;;;;5.88;3.60;;;;;;;17.58;100.00;99922.19;6250500;28;20099;-72
2023/06/08 01:47:08;;;;;;;3.33;2.97;;;;;;;17.53;100.00;99917.34;6260140;28;20413;-72
2023/06/08 01:50:10;;;;;;;7.65;3.28;;;;;;;17.60;100.00;99920.25;6223658;28;20046;-72
2023/06/08 01:53:13;;;;;;;7.07;3.22;;;;;;;17.55;100.00;99919.84;6239653;28;20049;-71
2023/06/08 01:56:14;;;;;;;9.30;2.95;;;;;;;17.58;100.00;99927.47;6248077;28;20132;-72
2023/06/08 01:59:15;;;;;;;4.78;3.15;;;;;;;17.59;100.00;99923.88;6247676;28;20053;-72
2023/06/08 02:02:16;;;;;;;4.57;2.90;;;;;;;17.53;100.00;99930.53;6248874;28;20529;-72
2023/06/08 02:05:17;;;;;;;7.45;2.97;;;;;;;17.51;100.00;99923.75;6247683;28;20569;-72
2023/06/08 02:08:18;;;;;;;5.47;3.33;;;;;;;17.52;100.00;99923.59;6248133;28;20181;-72
2023/06/08 02:11:22;;;;;;;5.03;3.38;;;;;;;17.46;100.00;99908.34;6248764;28;20056;-72
2023/06/08 02:14:24;;;;;;;4.32;3.00;;;;;;;17.45;100.00;99919.84;6247398;28;20405;-71
2023/06/08 02:17:26;;;;;;;4.68;3.05;;;;;;;17.46;100.00;99916.25;6248736;28;20087;-72
2023/06/08 02:20:27;;;;;;;;;;;;;;;17.51;100.00;99918.47;6247529;28;20076;-71
2023/06/08 02:23:31;;;;;;;5.53;3.40;;;;;;;17.53;100.00;99925.25;6248527;28;19921;-71
2023/06/08 02:26:32;;;;;;;5.22;3.10;;;;;;;17.56;100.00;99920.69;6257858;28;20049;-72
2023/06/08 02:29:33;;;;;;;4.13;2.70;;;;;;;17.54;100.00;99923.44;6258098;28;20041;-72
2023/06/08 02:32:34;;;;;;;4.60;3.13;;;;;;;17.50;100.00;99922.91;6252597;28;20040;-72
2023/06/08 02:35:39;;;;;;;5.07;2.78;;;;;;;17.54;100.00;99918.16;6267769;28;20084;-71
2023/06/08 02:38:40;;;;;;;7.00;3.33;;;;;;;17.50;100.00;99922.91;6272318;28;20501;-72
2023/06/08 02:41:43;;;;;;;12.38;4.05;;;;;;;17.48;100.00;99916.94;6251714;28;20056;-72
2023/06/08 02:44:48;;;;;;;3.97;2.85;;;;;;;17.59;100.00;99920.41;6249212;28;20080;-72
2023/06/08 02:47:49;;;;;;;4.85;3.42;;;;;;;17.52;100.00;99923.59;6246567;28;20060;-71
2023/06/08 02:50:49;;;;;;;5.30;3.03;;;;;;;17.50;100.00;99917.66;6253514;28;20040;-71
2023/06/08 02:53:50;;;;;;;8.13;3.40;;;;;;;17.48;100.00;99916.94;6269622;28;20056;-71
2023/06/08 02:56:51;;;;;;;5.07;3.38;;;;;;;17.47;100.00;99917.91;6259318;28;20056;-71
2023/06/08 02:59:52;;;;;;;4.88;3.35;;;;;;;17.46;100.00;99921.53;6261244;28;20041;-72
2023/06/08 03:02:53;;;;;;;4.23;3.03;;;;;;;17.42;100.00;99921.94;6270810;28;20651;-72
2023/06/08 03:05:58;;;;;;;6.63;3.67;;;;;;;17.44;100.00;99922.63;6269246;28;20285;-72
2023/06/08 03:08:59;;;;;;;5.07;3.10;;;;;;;17.46;100.00;99918.91;6270421;28;20515;-72
2023/06/08 03:12:02;;;;;;;5.20;3.55;;;;;;;17.47;100.00;99922.34;6248071;28;20059;-72
2023/06/08 03:15:04;;;;;;;5.88;3.30;;;;;;;17.51;100.00;99929.03;6260120;28;20053;-72
2023/06/08 03:18:05;;;;;;;7.70;3.92;;;;;;;17.50;100.00;99927.34;6271748;28;20045;-72
2023/06/08 04:39:01;;;;;;;8.10;4.93;;;;;;;18.06;100.00;99949.47;6293299;28;20388;-73
2023/06/08 04:42:02;;;;;;;6.13;4.20;;;;;;;18.21;100.00;99955.13;6292787;28;20048;-73
2023/06/08 04:45:03;;;;;;;5.10;3.50;;;;;;;18.25;100.00;99959.94;6291638;28;20055;-73
2023/06/08 04:48:04;;;;;;;5.68;3.63;;;;;;;18.38;100.00;99956.97;6293385;28;20044;-73
2023/06/08 04:51:09;;;;;;;6.10;4.15;;;;;;;18.44;100.00;99952.91;6291294;28;20101;-73
2023/06/08 04:54:13;;;;;;;6.85;3.92;;;;;;;18.66;100.00;99956.97;6292965;28;20049;-73
2023/06/08 04:57:19;;;;;;;4.72;3.25;;;;;;;18.57;100.00;99966.59;6283427;28;20071;-74
2023/06/08 05:00:20;;;;;;;6.95;4.00;;;;;;;18.53;100.00;99959.94;6291736;28;20107;-73
2023/06/08 05:03:21;;;;;;;4.97;3.60;;;;;;;18.68;100.00;99962.94;6263840;28;20060;-73
2023/06/08 05:06:21;;;;;;;8.50;4.47;;;;;;;18.98;100.00;99964.44;6305096;28;20055;-73
2023/06/08 05:09:22;;;;;;;8.70;4.27;;;;;;;19.11;100.00;99967.56;6260570;28;20045;-72
2023/06/08 05:12:25;;;;;;;6.28;4.63;;;;;;;19.24;100.00;99969.81;6278179;28;20127;-72
2023/06/08 05:15:26;;;;;;;4.68;3.58;;;;;;;19.43;100.00;99971.47;6262253;28;20142;-72
2023/06/08 05:18:29;;;;;;;4.13;3.43;;;;;;;19.53;100.00;99969.56;6254852;28;20386;-72
2023/06/08 05:21:30;;;;;;;5.85;3.75;;;;;;;19.76;100.00;99976.22;6271254;28;20053;-72
2023/06/08 05:37:50;;;;;;;3.80;3.10;;;;;;;20.85;100.00;99971.13;6272107;28;20387;-72
2023/06/08 05:40:51;;;;;;;3.87;2.77;;;;;;;20.82;100.00;99975.94;6285287;28;20055;-73
2023/06/08 05:43:54;;;;;;;6.73;3.10;;;;;;;20.61;100.00;99974.53;6270152;28;20287;-72
2023/06/08 05:46:55;;;;;;;4.05;2.88;;;;;;;20.35;96.53;99979.88;6270200;28;20053;-73
2023/06/08 05:49:56;;;;;;;3.53;2.73;;;;;;;20.30;100.00;99977.69;6290711;28;20828;-73
2023/06/08 05:52:58;;;;;;;4.13;3.03;;;;;;;20.40;100.00;99976.72;6292946;28;20053;-73
2023/06/08 05:55:59;;;;;;;4.68;2.80;;;;;;;20.38;97.67;99984.84;6266752;28;20049;-72
2023/06/08 05:59:00;;;;;;;3.07;2.60;;;;;;;20.43;93.39;99979.91;6273814;28;20735;-72
2023/06/08 06:02:00;;;;;;;3.73;2.80;;;;;;;20.28;94.90;99978.81;6263051;28;20077;-72
2023/06/08 06:05:04;;;;;;;4.13;2.57;;;;;;;20.18;96.30;99978.97;6259779;28;20049;-72
2023/06/08 06:08:05;;;;;;;3.65;2.72;;;;;;;20.09;95.04;99979.88;6257902;28;20126;-72
2023/06/08 06:11:08;;;;;;;8.27;3.23;;;;;;;20.02;94.40;99981.53;6257250;28;20576;-72
2023/06/08 06:14:09;;;;;;;8.38;3.30;;;;;;;20.24;94.94;99980.13;6260964;28;20049;-72
2023/06/08 06:17:15;;;;;;;8.20;3.10;;;;;;;20.17;100.00;99984.41;6260934;28;20539;-72
2023/06/08 06:20:16;;;;;;;6.63;3.03;;;;;;;19.99;97.58;99976.53;6263590;28;20053;-72
2023/06/08 06:23:19;;;;;;;8.87;3.23;;;;;;;20.16;100.00;99978.28;6258635;28;20110;-72
2023/06/08 06:26:20;;;;;;;5.75;3.35;;;;;;;20.30;99.92;99972.41;6260110;28;20049;-72
2023/06/08 06:29:21;;;;;;;4.07;3.20;;;;;;;20.60;96.06;99987.94;6261177;28;20061;-72
2023/06/08 06:32:24;;;;;;;8.43;3.50;;;;;;;20.68;89.80;99977.38;6266558;28;20057;-72
2023/06/08 06:35:25;;;;;;;6.07;3.20;;;;;;;20.91;91.09;99975.78;6266484;28;20057;-72
2023/06/08 06:38:26;;;;;;;7.87;3.20;;;;;;;21.01;92.70;99974.81;6253225;28;20061;-72
2023/06/08 06:41:26;;;;;;;3.97;3.10;;;;;;;21.07;87.86;99976.81;6260729;28;20051;-72
2023/06/08 06:44:28;;;;;;;4.40;3.07;;;;;;;21.14;87.04;99972.50;6263056;28;20049;-72
2023/06/08 06:47:28;;;;;;;6.43;3.22;;;;;;;21.22;87.38;99969.03;6276075;28;20053;-72
2023/06/08 06:50:30;;;;;;;3.90;3.03;;;;;;;21.44;92.52;99976.38;6274214;28;20137;-72
2023/06/08 06:53:31;;;;;;;5.22;3.10;;;;;;;21.65;86.78;99973.19;6246241;28;20057;-71
2023/06/08 06:56:32;;;;;;;3.20;2.63;;;;;;;21.63;88.76;99982.34;6274374;28;20045;-72
2023/06/08 06:59:33;;;;;;;4.13;3.00;;;;;;;21.64;88.55;99982.19;6274975;28;20511;-71
2023/06/08 07:02:37;;;;;;;4.03;2.95;;;;;;;22.00;89.66;99980.97;6273050;28;20081;-72
2023/06/08 07:05:40;;;;;;;6.53;3.20;;;;;;;22.12;86.60;99976.94;6275148;28;20085;-72
2023/06/08 07:08:41;;;;;;;3.97;3.05;;;;;;;21.98;86.93;99982.94;6275207;28;20053;-71
2023/06/08 07:11:42;;;;;;;5.43;3.40;;;;;;;22.12;87.25;99972.44;6273808;28;20401;-71
2023/06/08 07:14:43;;;;;;;7.17;3.43;;;;;;;22.16;88.02;99980.91;6267325;28;20140;-72
2023/06/08 07:17:45;;;;;;;5.20;3.30;;;;;;;22.43;92.14;99976.22;6250188;28;20132;-72
2023/06/08 07:20:49;;;;;;;5.97;3.83;;;;;;;22.36;86.94;99976.03;6259418;28;20056;-72
2023/06/08 07:23:50;;;;;;;5.35;2.95;;;;;;;22.66;87.66;99990.38;6273375;28;20415;-71
2023/06/08 07:26:51;;;;;;;6.22;3.45;;;;;;;22.78;84.79;99988.16;6274802;28;20045;-71
2023/06/08 07:29:52;;;;;;;8.87;3.10;;;;;;;22.95;85.83;99991.56;6262817;28;20056;-72
2023/06/08 07:32:53;;;;;;;9.25;5.18;;;;;;;22.99;81.68;99992.03;6271789;28;20053;-72
2023/06/08 07:35:54;;;;;;;6.43;2.88;;;;;;;23.26;81.53;99986.22;6239920;28;20057;-72
2023/06/08 07:38:56;;;;;;;8.70;3.03;;;;;;;23.09;79.10;99982.03;6247864;28;20058;-71
2023/06/08 07:41:57;;;;;;;4.03;2.92;;;;;;;22.91;81.99;99988.41;6244917;28;20049;-72
2023/06/08 07:44:57;;;;;;;5.93;3.60;;;;;;;23.44;78.99;99985.94;6236280;28;20495;-72
2023/06/08 07:47:58;;;;;;;5.40;3.30;;;;;;;23.55;82.15;99984.66;6255345;28;20041;-69
2023/06/08 07:50:59;;;;;;;4.30;3.13;;;;;;;23.51;83.20;99981.56;6273293;28;20451;-69
2023/06/08 07:54:02;;;;;;;4.90;3.17;;;;;;;23.26;78.93;99983.56;6266312;28;20445;-70
2023/06/08 07:57:03;;;;;;;2.83;2.17;;;;;;;23.37;73.84;99989.47;6223790;28;20053;-69
2023/06/08 08:00:05;;;;;;;3.10;2.47;;;;;;;23.58;73.46;99986.16;6259832;28;20114;-70
2023/06/08 08:03:06;;;;;;;4.32;2.90;;;;;;;23.42;72.78;99987.94;6269434;28;20372;-71
2023/06/08 08:06:07;;;;;;;4.20;2.70;;;;;;;23.67;74.56;99990.38;6248302;28;20045;-72
2023/06/08 08:09:08;;;;;;;3.97;2.83;;;;;;;23.33;77.15;99986.34;6248554;28;20053;-72
2023/06/08 08:12:09;;;;;;;4.03;3.30;;;;;;;23.56;81.23;99985.50;6253310;28;20045;-72
2023/06/08 08:15:10;;;;;;;3.20;2.67;;;;;;;22.98;77.67;99977.06;6271442;28;20093;-72
2023/06/08 08:18:12;;;;;;;4.03;2.63;;;;;;;23.53;77.98;99986.69;6273245;28;20057;-72
2023/06/08 08:21:13;;;;;;;4.47;3.15;;;;;;;24.15;75.83;99982.94;6272820;28;20049;-72
2023/06/08 08:24:16;;;;;;;3.17;2.77;;;;;;;24.26;74.94;99985.16;6252794;28;20045;-71
2023/06/08 08:27:18;;;;;;;4.45;2.80;;;;;;;24.70;73.81;99983.47;6251768;28;20461;-72
2023/06/08 08:30:18;;;;;;;5.33;2.90;;;;;;;24.94;72.00;99980.47;6246117;28;20103;-72
2023/06/08 08:33:19;;;;;;;4.13;2.70;;;;;;;24.39;76.44;99973.00;6261101;28;20129;-72
2023/06/08 08:36:20;;;;;;;3.07;2.57;;;;;;;23.84;74.28;99980.44;6272218;28;20053;-71
2023/06/08 08:39:21;;;;;;;2.63;2.17;;;;;;;24.68;73.08;99986.31;6265845;28;20485;-69
2023/06/08 08:42:24;;;;;;;5.83;2.53;;;;;;;24.67;71.81;99981.19;6271856;28;20053;-70
2023/06/08 08:45:29;;;;;;;4.20;2.20;;;;;;;24.93;68.06;99983.31;6272691;28;20128;-70
2023/06/08 08:48:31;;;;;;;4.05;2.63;;;;;;;24.86;70.12;99975.25;6264942;28;20084;-70
2023/06/08 08:51:32;;;;;;;4.80;2.67;;;;;;;25.07;67.92;99970.94;6247189;28;20052;-70
2023/06/08 08:54:33;;;;;;;6.05;2.70;;;;;;;25.04;67.63;99973.97;6246848;28;20493;-70
2023/06/08 08:57:35;;;;;;;4.35;2.60;;;;;;;25.57;69.08;99976.34;6241613;28;20053;-70
2023/06/08 09:00:36;;;;;;;6.95;2.75;;;;;;;25.66;68.52;99973.34;6246028;28;20053;-70
2023/06/08 09:03:40;;;;;;;3.83;2.67;;;;;;;25.80;67.39;99976.94;6246734;28;20057;-69
2023/06/08 09:06:50;;;;;;;2.53;2.20;;;;;;;25.88;65.70;99978.63;6237754;28;20045;-70
2023/06/08 09:10:19;;;;;;;3.95;2.40;;;;;;;25.95;63.72;99981.41;6259338;28;20049;-70
2023/06/08 09:13:23;;;;;;;4.93;2.47;;;;;;;26.05;62.06;99977.34;6223347;28;20161;-70
2023/06/08 09:16:23;;;;;;;3.78;2.10;;;;;;;26.01;62.35;99976.09;6246359;28;20458;-70
2023/06/08 09:19:25;;;;;;;3.23;2.30;;;;;;;26.30;62.56;99975.00;6227979;28;20054;-70
2023/06/08 09:22:29;;;;;;;4.97;2.28;;;;;;;26.64;61.39;99969.81;6233113;28;20426;-70
2023/06/08 09:25:38;;;;;;;6.18;2.20;;;;;;;26.61;60.14;99971.06;6242927;28;20072;-70
2023/06/08 09:28:39;;;;;;;7.47;2.38;;;;;;;25.60;61.03;99963.44;6277398;28;20053;-70
2023/06/08 09:31:49;;;;;;;4.37;2.07;;;;;;;25.71;60.87;99960.22;6245333;28;20104;-70
2023/06/08 09:34:55;;;;;;;3.35;2.13;;;;;;;26.03;63.29;99960.69;6247189;28;20059;-70
2023/06/08 09:38:16;;;;;;;3.90;2.28;;;;;;;26.28;60.64;99957.50;6271670;28;20060;-70
2023/06/08 09:41:23;;;;;;;3.47;2.00;;;;;;;26.51;56.60;99951.84;6271819;28;20049;-70
2023/06/08 09:44:24;;;;;;;2.83;2.03;;;;;;;26.50;56.44;99951.03;6271546;28;20461;-70
2023/06/08 09:47:26;;;;;;;2.90;2.00;;;;;;;26.81;60.39;99949.72;6270636;28;20052;-70
2023/06/08 09:50:26;;;;;;;5.28;2.30;;;;;;;26.72;57.43;99948.22;6241575;28;20053;-70
2023/06/08 09:53:32;;;;;;;3.83;2.38;;;;;;;26.99;58.30;99938.41;6232088;28;20485;-69
2023/06/08 09:56:37;;;;;;;7.90;2.10;;;;;;;27.15;56.08;99926.47;6263748;28;20045;-70
2023/06/08 09:59:52;;;;;;;3.78;2.40;;;;;;;27.23;55.62;99928.16;6261102;28;20448;-70
2023/06/08 10:03:22;;;;;;;3.60;2.13;;;;;;;27.48;56.09;99925.69;6271352;28;20060;-70
2023/06/08 10:06:25;;;;;;;7.10;2.13;;;;;;;27.61;55.84;99925.66;6269648;28;20175;-69
2023/06/08 10:09:27;;;;;;;3.58;2.38;;;;;;;27.67;54.77;99921.34;6271172;28;20040;-70
2023/06/08 10:12:29;;;;;;;3.53;2.05;;;;;;;27.68;56.24;99915.78;6272755;28;20059;-70
2023/06/08 10:15:30;;;;;;;3.70;2.05;;;;;;;27.81;58.65;99911.41;6267499;28;20052;-69
2023/06/08 10:18:32;;;;;;;2.53;2.10;;;;;;;27.65;55.01;99910.81;6274459;28;20469;-70
2023/06/08 10:21:37;;;;;;;3.22;2.40;;;;;;;27.82;54.45;99905.84;6260913;28;20097;-70
2023/06/08 10:24:39;;;;;;;3.55;1.98;;;;;;;27.36;54.86;99904.06;6265643;28;20485;-70
2023/06/08 10:27:50;;;;;;;4.80;2.08;;;;;;;27.35;55.58;99905.09;6257634;28;20137;-69
2023/06/08 10:30:50;;;;;;;3.70;2.30;;;;;;;27.60;56.84;99894.56;6271156;28;20045;-70
2023/06/08 10:33:54;;;;;;;2.30;1.92;;;;;;;27.61;53.29;99890.00;6273912;28;20044;-70
2023/06/08 10:36:55;;;;;;;3.53;2.30;;;;;;;26.99;55.52;99892.88;6269920;28;20045;-70
2023/06/08 10:39:58;;;;;;;9.65;2.63;;;;;;;26.77;56.14;99884.25;6231312;28;20510;-70
2023/06/08 10:42:59;;;;;;;2.58;2.00;;;;;;;26.37;60.03;99884.09;6266911;28;20107;-69
2023/06/08 10:45:59;;;;;;;2.97;2.05;;;;;;;27.48;58.86;99874.78;6252587;28;20447;-69
2023/06/08 10:49:01;;;;;;;2.22;1.70;;;;;;;27.58;55.12;99869.00;6262929;28;20068;-71
2023/06/08 10:52:04;;;;;;;4.03;2.10;;;;;;;27.97;53.56;99868.09;6236778;28;20046;-71
2023/06/08 10:55:11;;;;;;;1.83;1.67;;;;;;;28.07;51.92;99865.78;6224341;28;20103;-71
2023/06/08 10:58:16;;;;;;;2.38;2.10;;;;;;;28.07;52.32;99863.09;6235123;28;20053;-71
2023/06/08 11:01:19;;;;;;;2.50;2.00;;;;;;;28.08;52.26;99858.56;6246262;28;20127;-70
2023/06/08 11:04:23;;;;;;;4.20;1.83;;;;;;;27.17;52.78;99859.34;6260145;28;20500;-71
2023/06/08 11:07:25;;;;;;;2.55;2.05;;;;;;;27.42;55.42;99849.66;6252557;28;20409;-72
2023/06/08 11:10:28;;;;;;;4.97;2.33;;;;;;;28.28;49.94;99848.56;6266138;28;20401;-72
2023/06/08 11:13:31;;;;;;;3.65;2.03;;;;;;;27.59;51.45;99846.53;6272772;28;20103;-72
2023/06/08 11:16:34;;;;;;;3.92;2.13;;;;;;;28.05;54.28;99845.59;6256059;28;20089;-71
2023/06/08 11:19:35;;;;;;;4.50;1.83;;;;;;;28.09;53.00;99847.63;6250703;28;20050;-71
2023/06/08 11:22:42;;;;;;;4.53;2.08;;;;;;;28.11;50.89;99845.56;6263872;28;20049;-71
2023/06/08 11:25:47;;;;;;;3.30;2.10;;;;;;;28.48;50.89;99845.78;6272699;28;20072;-71
2023/06/08 11:28:49;;;;;;;3.45;2.13;;;;;;;28.40;52.25;99842.53;6273925;28;20053;-71
2023/06/08 11:31:53;;;;;;;3.38;2.10;;;;;;;28.11;52.65;99842.88;6270172;28;20053;-72
2023/06/08 11:34:54;;;;;;;5.15;2.40;;;;;;;27.32;52.83;99852.78;6267038;28;20108;-71
2023/06/08 11:37:59;;;;;;;3.05;2.00;;;;;;;27.74;54.57;99855.16;6247881;28;20144;-72
2023/06/08 11:40:59;;;;;;;3.83;2.40;;;;;;;28.05;51.99;99856.31;6255781;28;20045;-71
2023/06/08 11:44:00;;;;;;;7.53;2.30;;;;;;;28.23;51.59;99852.91;6270278;28;20545;-72
2023/06/08 11:47:02;;;;;;;2.10;1.80;;;;;;;28.11;54.40;99844.72;6271017;28;20756;-71
2023/06/08 11:50:04;;;;;;;2.92;1.75;;;;;;;28.34;51.98;99845.00;6270516;28;20048;-71
2023/06/08 11:53:10;;;;;;;2.40;1.70;;;;;;;28.39;52.45;99838.19;6272034;28;20474;-71
2023/06/08 11:56:11;;;;;;;2.97;2.03;;;;;;;28.43;54.31;99847.44;6271962;28;20140;-71
2023/06/08 11:59:13;;;;;;;2.47;1.85;;;;;;;28.26;49.64;99839.91;6271117;28;20110;-72
2023/06/08 12:02:14;;;;;;;2.95;2.08;;;;;;;28.10;51.40;99835.84;6272328;28;20136;-71
2023/06/08 12:05:22;;;;;;;3.35;2.30;;;;;;;28.16;53.30;99834.16;6273319;28;20551;-71
2023/06/08 12:08:25;;;;;;;2.83;2.05;;;;;;;28.60;56.41;99832.50;6267759;28;20052;-72
2023/06/08 12:11:26;;;;;;;2.42;1.90;;;;;;;28.54;52.24;99825.34;6260047;28;20155;-71
2023/06/08 12:14:27;;;;;;;2.92;2.17;;;;;;;28.89;52.39;99816.78;6232649;28;20486;-71
2023/06/08 12:17:28;;;;;;;1.95;1.80;;;;;;;28.96;51.41;99809.50;6271335;28;20049;-71
2023/06/08 12:20:35;;;;;;;2.67;2.00;;;;;;;28.84;49.53;99804.03;6260392;28;20221;-71
2023/06/08 12:23:36;;;;;;;2.72;1.92;;;;;;;28.90;50.20;99803.16;6270517;28;20581;-71
2023/06/08 12:26:37;;;;;;;2.25;1.67;;;;;;;28.99;51.16;99792.13;6270957;28;20045;-71
2023/06/08 12:29:38;;;;;;;2.58;1.80;;;;;;;28.76;49.93;99795.44;6263704;28;20124;-71
2023/06/08 12:32:39;;;;;;;3.22;2.17;;;;;;;28.61;50.61;99793.06;6239816;28;20057;-72
2023/06/08 12:35:40;;;;;;;2.33;2.10;;;;;;;28.68;48.74;99789.31;6267458;28;20064;-71
2023/06/08 12:38:41;;;;;;;;;;;;;;;28.75;49.86;99796.50;6238644;28;20060;-72
2023/06/08 12:41:41;;;;;;;2.63;1.80;;;;;;;28.89;47.72;99787.25;6273665;28;19921;-71
2023/06/08 12:44:43;;;;;;;3.88;1.80;;;;;;;28.82;49.69;99789.19;6230204;28;20045;-71
2023/06/08 12:47:44;;;;;;;2.80;1.63;;;;;;;28.59;49.97;99779.06;6240863;28;20054;-72
2023/06/08 12:50:45;;;;;;;3.78;2.10;;;;;;;28.77;49.31;99781.78;6245648;28;20050;-71
2023/06/08 12:53:46;;;;;;;2.67;1.90;;;;;;;28.36;49.59;99780.41;6243378;28;20518;-71
2023/06/08 12:56:46;;;;;;;3.53;1.85;;;;;;;28.53;48.74;99767.31;6268533;28;20045;-71
2023/06/08 12:59:47;;;;;;;2.97;1.88;;;;;;;28.53;49.44;99773.50;6247496;28;20060;-71
2023/06/08 13:02:51;;;;;;;4.07;2.00;;;;;;;28.34;52.30;99767.22;6253182;28;20057;-71
2023/06/08 13:05:52;;;;;;;3.33;2.10;;;;;;;28.35;48.95;99765.34;6270431;28;20060;-71
2023/06/08 13:08:53;;;;;;;2.40;1.95;;;;;;;28.76;52.43;99769.41;6272539;28;20049;-71
2023/06/08 13:11:56;;;;;;;3.67;1.98;;;;;;;28.15;50.77;99765.50;6262096;28;20057;-71
2023/06/08 13:14:57;;;;;;;1.92;1.63;;;;;;;27.62;50.73;99763.03;6270369;28;20053;-72
2023/06/08 13:18:06;;;;;;;4.05;2.15;;;;;;;27.56;52.91;99766.56;6260569;28;20072;-72
2023/06/08 13:21:06;;;;;;;4.80;2.10;;;;;;;27.98;52.48;99765.16;6251334;28;20049;-72
2023/06/08 13:24:07;;;;;;;6.40;2.22;;;;;;;28.42;51.21;99773.38;6271015;28;20057;-72
2023/06/08 13:27:13;;;;;;;3.28;2.08;;;;;;;28.30;52.04;99770.56;6259109;28;20095;-71
2023/06/08 13:30:14;;;;;;;2.22;2.00;;;;;;;28.34;49.67;99769.91;6236878;28;20061;-71
2023/06/08 13:33:15;;;;;;;5.25;2.00;;;;;;;28.29;49.63;99769.75;6254771;28;20056;-71
2023/06/08 13:36:15;;;;;;;4.30;2.20;;;;;;;28.01;50.57;99770.09;6253640;28;20050;-72
2023/06/08 13:39:17;;;;;;;3.42;2.35;;;;;;;27.39;51.40;99760.84;6233646;28;20492;-72
2023/06/08 13:42:22;;;;;;;5.47;2.30;;;;;;;27.22;52.02;99765.78;6230728;28;20049;-71
2023/06/08 13:45:23;;;;;;;7.88;1.88;;;;;;;26.96;53.17;99767.50;6270453;28;20566;-71
2023/06/08 13:48:28;;;;;;;2.30;2.10;;;;;;;26.86;54.60;99770.59;6258595;28;20057;-71
2023/06/08 13:51:29;;;;;;;2.10;1.75;;;;;;;26.85;54.87;99760.94;6251180;28;20049;-71
2023/06/08 13:54:30;;;;;;;3.28;2.15;;;;;;;26.83;55.30;99773.69;6263573;28;20108;-71
2023/06/08 13:57:30;;;;;;;2.10;1.70;;;;;;;26.87;55.71;99760.69;6274858;28;20049;-71
2023/06/08 14:00:33;;;;;;;2.33;1.90;;;;;;;26.92;54.63;99758.22;6276414;28;20282;-71
2023/06/08 14:03:33;;;;;;;3.53;2.10;;;;;;;26.91;54.60;99749.38;6275314;28;20049;-71
2023/06/08 14:06:35;;;;;;;3.67;2.25;;;;;;;27.06;54.36;99748.34;6275157;28;20480;-71
2023/06/08 14:09:40;;;;;;;;;;;;;;;27.31;52.45;99745.84;6276322;28;20412;-72
2023/06/08 14:12:41;;;;;;;3.15;1.92;;;;;;;27.43;53.01;99740.66;6272609;28;20288;-70
2023/06/08 14:15:42;;;;;;;2.30;2.03;;;;;;;27.42;51.98;99741.66;6274272;28;20094;-71
2023/06/08 14:18:42;;;;;;;5.15;2.22;;;;;;;27.53;53.06;99741.03;6275816;28;20114;-71
2023/06/08 14:21:45;;;;;;;3.58;2.03;;;;;;;27.49;52.88;99729.09;6273739;28;20053;-71
2023/06/08 14:24:48;;;;;;;3.60;2.30;;;;;;;27.19;53.88;99726.88;6262481;28;20211;-71
2023/06/08 14:27:49;;;;;;;4.13;1.90;;;;;;;27.13;52.87;99719.69;6252365;28;20107;-70
2023/06/08 14:30:50;;;;;;;3.33;2.03;;;;;;;27.00;52.88;99719.72;6275027;28;20049;-71
2023/06/08 14:33:51;;;;;;;2.78;1.90;;;;;;;26.90;52.99;99726.31;6273988;28;20554;-71
2023/06/08 14:36:52;;;;;;;2.42;1.90;;;;;;;27.00;53.62;99715.19;6252312;28;20053;-71
2023/06/08 14:39:53;;;;;;;6.57;1.85;;;;;;;26.99;53.24;99715.38;6248371;28;20080;-71
2023/06/08 14:42:53;;;;;;;2.60;1.90;;;;;;;27.01;53.08;99703.44;6236380;28;20493;-71
2023/06/08 14:45:54;;;;;;;3.17;2.00;;;;;;;27.26;53.92;99713.50;6272064;28;20053;-70
2023/06/08 14:48:57;;;;;;;3.45;1.80;;;;;;;27.30;54.33;99706.69;6273914;28;20135;-71
2023/06/08 14:52:00;;;;;;;4.93;2.05;;;;;;;27.35;53.76;99722.13;6267039;28;20133;-71
2023/06/08 14:55:01;;;;;;;4.15;2.55;;;;;;;27.11;54.34;99711.84;6235090;28;20065;-71
2023/06/08 14:58:02;;;;;;;3.80;2.15;;;;;;;26.89;52.52;99711.31;6258915;28;20072;-71
2023/06/08 15:01:03;;;;;;;3.08;1.95;;;;;;;26.58;53.77;99713.78;6255913;28;20409;-71
2023/06/08 15:04:07;;;;;;;2.95;2.05;;;;;;;26.50;54.92;99707.59;6247535;28;20057;-71
2023/06/08 15:07:08;;;;;;;7.18;2.22;;;;;;;26.60;54.02;99706.38;6245974;28;20139;-71
2023/06/08 15:10:09;;;;;;;3.08;2.13;;;;;;;26.81;52.91;99705.31;6297713;28;20049;-72
2023/06/08 15:13:10;;;;;;;4.70;2.28;;;;;;;26.90;54.50;99699.53;6254104;28;20433;-71
2023/06/08 15:16:11;;;;;;;5.60;2.13;;;;;;;26.86;53.25;99702.84;6234472;28;20099;-71
2023/06/08 15:19:12;;;;;;;4.07;2.35;;;;;;;26.92;54.48;99686.78;6255041;28;20057;-71
2023/06/08 15:22:13;;;;;;;2.33;2.00;;;;;;;26.91;54.16;99682.47;6237390;28;20383;-71
2023/06/08 15:25:13;;;;;;;3.25;2.20;;;;;;;26.72;54.34;99685.97;6249066;28;20139;-71
2023/06/08 15:28:14;;;;;;;3.55;2.05;;;;;;;26.78;55.21;99681.66;6248262;28;20489;-70
2023/06/08 15:31:15;;;;;;;2.35;1.95;;;;;;;26.65;54.65;99679.84;6265890;28;20056;-71
2023/06/08 15:34:16;;;;;;;2.72;2.10;;;;;;;26.69;56.23;99676.53;6272958;28;20044;-71
2023/06/08 15:37:30;;;;;;;4.65;2.45;;;;;;;26.72;56.25;99677.97;6273637;28;20053;-71
2023/06/08 15:40:31;;;;;;;3.15;2.20;;;;;;;26.42;55.56;99672.19;6256009;28;20468;-71
2023/06/08 15:43:32;;;;;;;4.30;2.10;;;;;;;26.32;56.08;99669.94;6268071;28;20058;-71
2023/06/08 15:46:34;;;;;;;2.08;1.85;;;;;;;26.21;58.34;99666.03;6247409;28;20056;-70
2023/06/08 15:49:35;;;;;;;3.42;2.20;;;;;;;26.08;60.09;99679.38;6245734;28;20136;-70